createdAt,value
2019-01-29T00:00:58.307Z,0.30
2019-01-29T00:03:00.236Z,0.30
2019-01-29T00:05:02.371Z,0.30
2019-01-29T00:07:04.221Z,0.30
2019-01-29T00:09:08.466Z,0.30
2019-01-29T00:11:10.276Z,0.20
2019-01-29T00:13:12.079Z,0.20
2019-01-29T00:15:13.998Z,0.20
2019-01-29T00:17:15.816Z,0.20
2019-01-29T00:19:17.552Z,0.20
2019-01-29T00:21:19.295Z,0.20
2019-01-29T00:23:20.999Z,0.10
2019-01-29T00:25:22.910Z,0.10
2019-01-29T00:27:24.645Z,0.00
2019-01-29T00:29:26.360Z,0.10
2019-01-29T00:31:28.098Z,0.00
2019-01-29T00:33:29.998Z,0.00
2019-01-29T00:35:31.971Z,0.00
2019-01-29T00:37:33.791Z,0.00
2019-01-29T00:39:35.590Z,0.10
2019-01-29T00:41:37.614Z,0.00
2019-01-29T00:43:39.318Z,0.00
2019-01-29T00:45:41.305Z,0.00
2019-01-29T00:47:43.134Z,0.00
2019-01-29T00:49:44.875Z,0.00
2019-01-29T00:51:46.697Z,0.00
2019-01-29T00:53:48.422Z,0.00
2019-01-29T00:55:50.252Z,0.00
2019-01-29T00:57:52.054Z,0.10
2019-01-29T00:59:53.797Z,0.10
2019-01-29T01:01:55.867Z,0.00
2019-01-29T01:03:57.585Z,0.00
2019-01-29T01:05:59.513Z,0.00
2019-01-29T01:08:01.442Z,0.00
2019-01-29T01:10:04.435Z,0.00
2019-01-29T01:12:06.154Z,-0.10
2019-01-29T01:14:07.883Z,-0.10
2019-01-29T01:16:09.797Z,-0.10
2019-01-29T01:18:11.556Z,-0.20
2019-01-29T01:20:15.170Z,-0.20
2019-01-29T01:22:16.883Z,-0.20
2019-01-29T01:24:18.598Z,-0.20
2019-01-29T01:26:20.406Z,-0.30
2019-01-29T01:28:22.217Z,-0.20
2019-01-29T01:30:23.930Z,-0.30
2019-01-29T01:32:25.734Z,-0.30
2019-01-29T01:34:27.463Z,-0.30
2019-01-29T01:36:29.277Z,-0.30
2019-01-29T01:38:30.994Z,-0.30
2019-01-29T01:40:32.721Z,-0.30
2019-01-29T01:43:05.793Z,-0.30
2019-01-29T01:45:08.711Z,-0.30
2019-01-29T01:47:15.971Z,-0.30
2019-01-29T01:49:24.921Z,-0.30
2019-01-29T01:51:40.738Z,-0.30
2019-01-29T01:53:44.387Z,-0.30
2019-01-29T01:55:46.302Z,-0.30
2019-01-29T01:57:48.019Z,-0.30
2019-01-29T01:59:49.729Z,-0.40
2019-01-29T02:01:51.467Z,-0.40
2019-01-29T02:03:53.170Z,-0.40
2019-01-29T02:05:54.983Z,-0.40
2019-01-29T02:07:56.727Z,-0.40
2019-01-29T02:09:58.557Z,-0.40
2019-01-29T02:12:00.271Z,-0.40
2019-01-29T02:14:02.090Z,-0.40
2019-01-29T02:16:04.764Z,-0.40
2019-01-29T02:18:06.680Z,-0.40
2019-01-29T02:20:09.926Z,-0.40
2019-01-29T02:22:11.675Z,-0.40
2019-01-29T02:24:13.486Z,-0.40
2019-01-29T02:26:15.211Z,-0.40
2019-01-29T02:28:17.450Z,-0.40
2019-01-29T02:30:21.251Z,-0.40
2019-01-29T02:32:23.059Z,-0.40
2019-01-29T02:34:24.782Z,-0.40
2019-01-29T02:36:26.720Z,-0.40
2019-01-29T02:38:28.471Z,-0.40
2019-01-29T02:40:30.378Z,-0.40
2019-01-29T02:42:32.404Z,-0.40
2019-01-29T02:44:34.114Z,-0.40
2019-01-29T02:46:36.182Z,-0.40
2019-01-29T02:48:38.022Z,-0.30
2019-01-29T02:50:39.839Z,-0.30
2019-01-29T02:52:41.583Z,-0.30
2019-01-29T02:54:43.304Z,-0.30
2019-01-29T02:56:45.025Z,-0.30
2019-01-29T02:58:46.776Z,-0.30
2019-01-29T03:00:48.691Z,-0.20
2019-01-29T03:02:50.703Z,-0.20
2019-01-29T03:04:53.497Z,-0.20
2019-01-29T03:06:55.653Z,-0.10
2019-01-29T03:08:57.750Z,-0.10
2019-01-29T03:10:59.812Z,-0.10
2019-01-29T03:13:01.744Z,-0.10
2019-01-29T03:15:05.087Z,0.00
2019-01-29T03:17:07.027Z,0.00
2019-01-29T03:19:09.711Z,0.00
2019-01-29T03:21:11.635Z,0.00
2019-01-29T03:23:13.423Z,0.10
2019-01-29T03:25:15.379Z,0.10
2019-01-29T03:27:17.287Z,0.10
2019-01-29T03:29:19.304Z,0.10
2019-01-29T03:31:21.309Z,0.20
2019-01-29T03:33:23.459Z,0.20
2019-01-29T03:35:25.303Z,0.20
2019-01-29T03:37:27.267Z,0.30
2019-01-29T03:39:29.159Z,0.30
2019-01-29T03:41:31.114Z,0.30
2019-01-29T03:43:33.319Z,0.30
2019-01-29T03:45:35.100Z,0.30
2019-01-29T03:47:37.083Z,0.30
2019-01-29T03:49:39.286Z,0.30
2019-01-29T03:51:41.068Z,0.30
2019-01-29T03:53:42.860Z,0.30
2019-01-29T03:55:44.835Z,0.30
2019-01-29T03:57:46.778Z,0.30
2019-01-29T03:59:48.640Z,0.30
2019-01-29T04:01:50.433Z,0.20
2019-01-29T04:03:52.230Z,0.20
2019-01-29T04:05:54.020Z,0.20
2019-01-29T04:07:56.149Z,0.20
2019-01-29T04:09:57.904Z,0.30
2019-01-29T04:11:59.965Z,0.30
2019-01-29T04:14:02.079Z,0.30
2019-01-29T04:16:04.038Z,0.30
2019-01-29T04:18:05.988Z,0.30
2019-01-29T04:20:10.499Z,0.30
2019-01-29T04:22:12.352Z,0.30
2019-01-29T04:24:14.149Z,0.40
2019-01-29T04:26:15.884Z,0.40
2019-01-29T04:28:17.787Z,0.50
2019-01-29T04:30:20.907Z,0.50
2019-01-29T04:32:22.812Z,0.50
2019-01-29T04:34:24.571Z,0.50
2019-01-29T04:36:26.537Z,0.60
2019-01-29T04:38:28.480Z,0.60
2019-01-29T04:40:30.278Z,0.60
2019-01-29T04:42:32.222Z,0.60
2019-01-29T04:44:33.972Z,0.60
2019-01-29T04:46:35.715Z,0.60
2019-01-29T04:48:37.691Z,0.60
2019-01-29T04:50:39.947Z,0.60
2019-01-29T04:52:41.900Z,0.50
2019-01-29T04:54:43.821Z,0.50
2019-01-29T04:56:45.548Z,0.50
2019-01-29T04:58:47.284Z,0.50
2019-01-29T05:00:49.292Z,0.50
2019-01-29T05:02:51.323Z,0.50
2019-01-29T05:04:53.107Z,0.50
2019-01-29T05:06:54.959Z,0.50
2019-01-29T05:08:56.821Z,0.50
2019-01-29T05:10:58.555Z,0.40
2019-01-29T05:13:00.459Z,0.50
2019-01-29T05:15:03.117Z,0.40
2019-01-29T05:17:05.075Z,0.40
2019-01-29T05:19:06.879Z,0.40
2019-01-29T05:21:08.967Z,0.40
2019-01-29T05:23:10.972Z,0.40
2019-01-29T05:25:13.028Z,0.40
2019-01-29T05:27:14.820Z,0.40
2019-01-29T05:29:16.766Z,0.40
2019-01-29T05:31:18.548Z,0.40
2019-01-29T05:33:20.548Z,0.30
2019-01-29T05:35:22.629Z,0.40
2019-01-29T05:37:24.670Z,0.40
2019-01-29T05:39:26.644Z,0.40
2019-01-29T05:41:28.587Z,0.50
2019-01-29T05:43:30.394Z,0.50
2019-01-29T05:45:32.528Z,0.50
2019-01-29T05:47:34.430Z,0.50
2019-01-29T05:49:36.451Z,0.60
2019-01-29T05:51:40.602Z,0.50
2019-01-29T05:53:42.118Z,0.50
2019-01-29T05:55:44.107Z,0.50
2019-01-29T05:57:46.061Z,0.50
2019-01-29T05:59:47.811Z,0.50
2019-01-29T06:01:49.568Z,0.40
2019-01-29T06:03:51.331Z,0.50
2019-01-29T06:05:53.188Z,0.40
2019-01-29T06:07:55.301Z,0.40
2019-01-29T06:09:57.053Z,0.40
2019-01-29T06:11:58.835Z,0.40
2019-01-29T06:14:00.621Z,0.40
2019-01-29T06:16:02.456Z,0.40
2019-01-29T06:18:04.513Z,0.40
2019-01-29T06:20:10.288Z,0.40
2019-01-29T06:22:12.055Z,0.40
2019-01-29T06:24:13.984Z,0.40
2019-01-29T06:26:15.967Z,0.30
2019-01-29T06:28:17.814Z,0.30
2019-01-29T06:30:20.114Z,0.30
2019-01-29T06:32:21.911Z,0.30
2019-01-29T06:34:23.682Z,0.30
2019-01-29T06:36:25.535Z,0.30
2019-01-29T06:38:27.333Z,0.30
2019-01-29T06:40:29.292Z,0.30
2019-01-29T06:42:31.459Z,0.30
2019-01-29T06:44:33.214Z,0.30
2019-01-29T06:46:35.016Z,0.30
2019-01-29T06:48:37.200Z,0.30
2019-01-29T06:50:38.948Z,0.30
2019-01-29T06:52:40.843Z,0.30
2019-01-29T06:54:42.629Z,0.40
2019-01-29T06:56:44.579Z,0.40
2019-01-29T06:58:46.343Z,0.40
2019-01-29T07:00:48.337Z,0.40
2019-01-29T07:02:50.308Z,0.40
2019-01-29T07:04:52.060Z,0.50
2019-01-29T07:06:53.931Z,0.50
2019-01-29T07:08:55.763Z,0.50
2019-01-29T07:10:57.527Z,0.50
2019-01-29T07:12:59.616Z,0.60
2019-01-29T07:15:01.597Z,0.60
2019-01-29T07:17:12.099Z,0.70
2019-01-29T07:19:18.179Z,0.70
2019-01-29T07:21:19.951Z,0.70
2019-01-29T07:23:21.831Z,0.80
2019-01-29T07:25:23.777Z,0.70
2019-01-29T07:27:25.555Z,0.80
2019-01-29T07:29:27.424Z,0.80
2019-01-29T07:31:29.730Z,0.80
2019-01-29T07:33:31.607Z,0.90
2019-01-29T07:35:33.338Z,0.90
2019-01-29T07:37:35.327Z,0.90
2019-01-29T07:39:37.099Z,0.90
2019-01-29T07:41:38.951Z,1.00
2019-01-29T07:43:40.711Z,1.00
2019-01-29T07:45:42.579Z,0.90
2019-01-29T07:47:44.417Z,0.90
2019-01-29T07:49:46.252Z,0.90
2019-01-29T07:51:48.002Z,0.90
2019-01-29T07:53:49.749Z,0.90
2019-01-29T07:55:51.595Z,1.00
2019-01-29T07:57:53.471Z,1.00
2019-01-29T07:59:55.221Z,1.10
2019-01-29T08:01:57.063Z,1.10
2019-01-29T08:03:59.182Z,1.10
2019-01-29T08:06:01.016Z,1.20
2019-01-29T08:08:03.578Z,1.20
2019-01-29T08:10:06.083Z,1.20
2019-01-29T08:12:07.832Z,1.20
2019-01-29T08:14:09.675Z,1.30
2019-01-29T08:16:11.729Z,1.40
2019-01-29T08:18:13.568Z,1.30
2019-01-29T08:20:15.650Z,1.30
2019-01-29T08:22:17.587Z,1.40
2019-01-29T08:24:19.360Z,1.40
2019-01-29T08:26:21.798Z,1.40
2019-01-29T08:28:23.656Z,1.40
2019-01-29T08:30:25.579Z,1.40
2019-01-29T08:32:27.435Z,1.50
2019-01-29T08:34:29.200Z,1.50
2019-01-29T08:36:31.652Z,1.60
2019-01-29T08:38:33.403Z,1.60
2019-01-29T08:40:35.258Z,1.60
2019-01-29T08:42:37.043Z,1.60
2019-01-29T08:44:39.170Z,1.60
2019-01-29T08:46:41.018Z,1.60
2019-01-29T08:48:42.761Z,1.60
2019-01-29T08:50:44.847Z,1.50
2019-01-29T08:52:46.631Z,1.50
2019-01-29T08:54:48.744Z,1.60
2019-01-29T08:56:50.655Z,1.60
2019-01-29T08:58:52.464Z,1.60
2019-01-29T09:00:54.332Z,1.60
2019-01-29T09:02:56.159Z,1.60
2019-01-29T09:04:57.860Z,1.60
2019-01-29T09:06:59.568Z,1.70
2019-01-29T09:09:01.299Z,1.70
2019-01-29T09:11:03.326Z,1.70
2019-01-29T09:13:05.169Z,1.70
2019-01-29T09:15:09.587Z,1.60
2019-01-29T09:17:11.298Z,1.60
2019-01-29T09:19:13.009Z,1.70
2019-01-29T09:21:14.746Z,1.70
2019-01-29T09:23:16.563Z,1.70
2019-01-29T09:25:20.878Z,1.80
2019-01-29T09:27:22.221Z,1.80
2019-01-29T09:29:24.035Z,1.80
2019-01-29T09:31:25.766Z,1.80
2019-01-29T09:33:27.575Z,1.70
2019-01-29T09:35:32.184Z,1.80
2019-01-29T09:37:34.418Z,1.70
2019-01-29T09:39:36.123Z,1.70
2019-01-29T09:41:37.947Z,1.70
2019-01-29T09:43:39.786Z,1.80
2019-01-29T09:45:41.754Z,1.70
2019-01-29T09:47:43.564Z,1.70
2019-01-29T09:49:45.290Z,1.70
2019-01-29T09:51:47.106Z,1.70
2019-01-29T09:53:48.910Z,1.70
2019-01-29T09:55:50.758Z,1.70
2019-01-29T09:57:52.573Z,1.70
2019-01-29T09:59:54.306Z,1.70
2019-01-29T10:01:56.154Z,1.70
2019-01-29T10:03:57.877Z,1.80
2019-01-29T10:05:59.687Z,1.90
2019-01-29T10:08:02.272Z,1.90
2019-01-29T10:10:04.590Z,2.00
2019-01-29T10:12:06.546Z,2.10
2019-01-29T10:14:08.722Z,2.20
2019-01-29T10:16:10.446Z,2.30
2019-01-29T10:18:12.610Z,2.50
2019-01-29T10:20:14.755Z,2.70
2019-01-29T10:22:16.489Z,3.00
2019-01-29T10:24:18.202Z,3.20
2019-01-29T10:26:19.942Z,3.60
2019-01-29T10:28:21.670Z,3.80
2019-01-29T10:30:24.274Z,4.10
2019-01-29T10:32:26.121Z,4.10
2019-01-29T10:34:27.834Z,3.90
2019-01-29T10:36:29.554Z,3.60
2019-01-29T10:38:31.366Z,3.40
2019-01-29T10:40:33.176Z,3.30
2019-01-29T10:42:34.976Z,3.40
2019-01-29T10:44:36.974Z,3.30
2019-01-29T10:46:38.687Z,3.30
2019-01-29T10:48:40.643Z,3.30
2019-01-29T10:50:45.444Z,3.30
2019-01-29T10:52:47.885Z,3.40
2019-01-29T10:54:50.219Z,3.60
2019-01-29T10:56:51.937Z,3.60
2019-01-29T10:58:53.798Z,3.60
2019-01-29T11:00:55.631Z,3.60
2019-01-29T11:02:57.673Z,3.60
2019-01-29T11:04:59.403Z,3.60
2019-01-29T11:07:01.252Z,3.60
2019-01-29T11:09:08.891Z,3.60
2019-01-29T11:11:10.708Z,3.70
2019-01-29T11:13:12.443Z,3.80
2019-01-29T11:15:22.750Z,3.70
2019-01-29T11:17:24.600Z,3.60
2019-01-29T11:19:26.606Z,3.60
2019-01-29T11:21:28.408Z,3.70
2019-01-29T11:23:30.235Z,3.80
2019-01-29T11:25:32.392Z,3.90
2019-01-29T11:27:34.199Z,3.80
2019-01-29T11:29:36.060Z,3.70
2019-01-29T11:31:37.798Z,3.80
2019-01-29T11:33:39.548Z,3.80
2019-01-29T11:35:41.462Z,3.80
2019-01-29T11:37:43.384Z,3.80
2019-01-29T11:39:45.187Z,3.90
2019-01-29T11:41:46.918Z,4.10
2019-01-29T11:43:48.675Z,4.10
2019-01-29T11:45:52.366Z,4.20
2019-01-29T11:47:54.074Z,4.60
2019-01-29T11:49:56.210Z,5.00
2019-01-29T11:51:58.050Z,5.00
2019-01-29T11:54:11.015Z,4.70
2019-01-29T11:56:14.735Z,4.50
2019-01-29T11:58:18.226Z,4.80
2019-01-29T12:00:31.289Z,5.30
2019-01-29T12:02:33.074Z,5.40
2019-01-29T12:04:35.151Z,5.40
2019-01-29T12:06:36.869Z,5.70
2019-01-29T12:08:38.746Z,5.80
2019-01-29T12:10:40.678Z,5.70
2019-01-29T12:12:42.601Z,5.50
2019-01-29T12:14:44.315Z,5.40
2019-01-29T12:16:46.498Z,5.70
2019-01-29T12:18:48.662Z,6.20
2019-01-29T12:20:50.565Z,6.80
2019-01-29T12:22:52.576Z,6.60
2019-01-29T12:24:54.306Z,5.80
2019-01-29T12:26:56.226Z,5.10
2019-01-29T12:28:58.187Z,4.90
2019-01-29T12:31:00.019Z,4.60
2019-01-29T12:33:03.790Z,4.50
2019-01-29T12:35:06.122Z,4.50
2019-01-29T12:37:07.930Z,4.40
2019-01-29T12:39:09.838Z,4.30
2019-01-29T12:41:11.833Z,4.10
2019-01-29T12:43:14.091Z,4.10
2019-01-29T12:45:16.418Z,4.00
2019-01-29T12:47:18.351Z,4.00
2019-01-29T12:49:20.228Z,4.00
2019-01-29T12:51:37.465Z,4.00
2019-01-29T12:53:40.846Z,4.00
2019-01-29T12:55:42.564Z,4.10
2019-01-29T12:57:44.384Z,3.90
2019-01-29T12:59:46.255Z,3.80
2019-01-29T13:01:48.077Z,3.80
2019-01-29T13:03:49.822Z,3.70
2019-01-29T13:05:51.663Z,3.80
2019-01-29T13:07:53.826Z,4.00
2019-01-29T13:09:55.901Z,4.10
2019-01-29T13:11:58.011Z,4.20
2019-01-29T13:13:59.819Z,4.60
2019-01-29T13:16:01.552Z,5.00
2019-01-29T13:18:04.178Z,4.90
2019-01-29T13:20:07.003Z,4.60
2019-01-29T13:22:08.717Z,4.60
2019-01-29T13:24:10.551Z,4.90
2019-01-29T13:26:12.651Z,4.80
2019-01-29T13:28:17.391Z,4.50
2019-01-29T13:30:22.788Z,4.40
2019-01-29T13:32:24.553Z,4.50
2019-01-29T13:34:26.378Z,4.60
2019-01-29T13:36:28.150Z,4.50
2019-01-29T13:38:29.961Z,4.30
2019-01-29T13:40:35.091Z,4.30
2019-01-29T13:42:37.006Z,4.70
2019-01-29T13:44:38.806Z,5.10
2019-01-29T13:46:40.742Z,5.40
2019-01-29T13:48:42.559Z,5.20
2019-01-29T13:50:51.570Z,5.30
2019-01-29T13:52:55.825Z,5.40
2019-01-29T13:54:57.670Z,5.50
2019-01-29T13:56:59.639Z,5.70
2019-01-29T13:59:01.408Z,5.30
2019-01-29T14:01:03.891Z,4.90
2019-01-29T14:03:06.758Z,4.60
2019-01-29T14:05:08.943Z,4.40
2019-01-29T14:07:10.790Z,4.10
2019-01-29T14:09:12.507Z,3.80
2019-01-29T14:11:14.327Z,3.70
2019-01-29T14:13:16.174Z,3.70
2019-01-29T14:15:27.058Z,3.60
2019-01-29T14:17:28.876Z,3.60
2019-01-29T14:19:30.709Z,3.60
2019-01-29T14:21:32.526Z,4.00
2019-01-29T14:23:34.220Z,4.30
2019-01-29T14:25:36.119Z,4.60
2019-01-29T14:27:37.944Z,4.80
2019-01-29T14:29:39.646Z,4.80
2019-01-29T14:31:41.427Z,4.60
2019-01-29T14:33:43.413Z,4.40
2019-01-29T14:35:45.288Z,4.20
2019-01-29T14:38:38.951Z,4.10
2019-01-29T14:40:40.991Z,3.90
2019-01-29T14:42:43.883Z,3.70
2019-01-29T14:44:49.487Z,3.60
2019-01-29T14:46:51.219Z,3.50
2019-01-29T14:48:53.144Z,3.50
2019-01-29T14:50:55.047Z,3.50
2019-01-29T14:52:56.968Z,3.50
2019-01-29T14:54:58.759Z,3.40
2019-01-29T14:57:00.534Z,3.30
2019-01-29T14:59:02.327Z,3.30
2019-01-29T15:01:05.670Z,3.30
2019-01-29T15:03:07.770Z,3.30
2019-01-29T15:05:09.599Z,3.20
2019-01-29T15:07:11.423Z,3.20
2019-01-29T15:09:13.406Z,3.20
2019-01-29T15:11:15.129Z,3.20
2019-01-29T15:13:17.408Z,3.20
2019-01-29T15:15:19.895Z,3.20
2019-01-29T15:17:34.616Z,3.10
2019-01-29T15:19:36.331Z,3.10
2019-01-29T15:21:38.319Z,3.10
2019-01-29T15:23:40.050Z,3.10
2019-01-29T15:25:41.878Z,3.00
2019-01-29T15:27:43.626Z,3.00
2019-01-29T15:29:46.078Z,3.00
2019-01-29T15:31:48.013Z,3.00
2019-01-29T15:33:49.756Z,3.10
2019-01-29T15:35:51.690Z,3.00
2019-01-29T15:37:54.691Z,2.90
2019-01-29T15:39:56.894Z,2.90
2019-01-29T15:41:58.762Z,3.00
2019-01-29T15:44:00.482Z,2.90
2019-01-29T15:46:02.203Z,2.90
2019-01-29T15:48:04.380Z,2.90
2019-01-29T15:50:07.554Z,2.80
2019-01-29T15:52:09.625Z,2.80
2019-01-29T15:54:11.714Z,2.70
2019-01-29T15:56:13.534Z,2.70
2019-01-29T15:58:18.420Z,2.70
2019-01-29T16:00:24.721Z,2.70
2019-01-29T16:02:26.427Z,2.60
2019-01-29T16:04:28.237Z,2.60
2019-01-29T16:06:29.982Z,2.70
2019-01-29T16:08:32.114Z,2.60
2019-01-29T16:10:39.489Z,2.60
2019-01-29T16:12:37.642Z,2.60
2019-01-29T16:14:39.384Z,2.70
2019-01-29T16:16:41.386Z,2.70
2019-01-29T16:18:43.110Z,2.60
2019-01-29T16:20:45.026Z,2.70
2019-01-29T16:22:47.187Z,2.60
2019-01-29T16:24:48.909Z,2.60
2019-01-29T16:26:50.904Z,2.60
2019-01-29T16:28:52.623Z,2.60
2019-01-29T16:30:54.438Z,2.60
2019-01-29T16:32:56.402Z,2.60
2019-01-29T16:34:58.467Z,2.60
2019-01-29T16:37:00.456Z,2.60
2019-01-29T16:39:04.364Z,2.40
2019-01-29T16:41:06.267Z,2.50
2019-01-29T16:43:08.175Z,2.50
2019-01-29T16:45:12.738Z,2.50
2019-01-29T16:47:14.588Z,2.40
2019-01-29T16:49:16.321Z,2.40
2019-01-29T16:51:18.310Z,2.40
2019-01-29T16:53:20.426Z,2.40
2019-01-29T16:55:23.123Z,2.40
2019-01-29T16:57:31.404Z,2.40
2019-01-29T16:59:28.467Z,2.30
2019-01-29T17:01:30.391Z,2.30
2019-01-29T17:03:33.146Z,2.30
2019-01-29T17:05:35.314Z,2.30
2019-01-29T17:07:37.396Z,2.30
2019-01-29T17:09:39.096Z,2.30
2019-01-29T17:11:40.914Z,2.30
2019-01-29T17:13:42.730Z,2.30
2019-01-29T17:15:44.695Z,2.20
2019-01-29T17:17:46.618Z,2.20
2019-01-29T17:19:48.407Z,2.20
2019-01-29T17:21:50.303Z,2.20
2019-01-29T17:23:52.230Z,2.20
2019-01-29T17:25:54.058Z,2.20
2019-01-29T17:27:55.863Z,2.20
2019-01-29T17:29:57.802Z,2.10
2019-01-29T17:31:59.519Z,2.10
2019-01-29T17:34:01.380Z,2.10
2019-01-29T17:36:03.316Z,2.10
2019-01-29T17:38:05.309Z,2.10
2019-01-29T17:40:08.441Z,2.00
2019-01-29T17:42:10.499Z,2.00
2019-01-29T17:44:12.406Z,2.00
2019-01-29T17:46:14.116Z,2.00
2019-01-29T17:48:15.933Z,2.00
2019-01-29T17:50:20.325Z,2.00
2019-01-29T17:52:22.414Z,2.00
2019-01-29T17:54:24.142Z,2.00
2019-01-29T17:56:25.978Z,1.90
2019-01-29T17:58:27.754Z,1.90
2019-01-29T18:00:31.602Z,1.80
2019-01-29T18:02:33.471Z,1.90
2019-01-29T18:04:35.430Z,1.90
2019-01-29T18:06:37.286Z,1.80
2019-01-29T18:08:49.336Z,1.80
2019-01-29T18:10:42.961Z,1.80
2019-01-29T18:12:44.782Z,1.80
2019-01-29T18:14:46.498Z,1.80
2019-01-29T18:16:48.637Z,1.70
2019-01-29T18:18:50.409Z,1.70
2019-01-29T18:20:52.586Z,1.70
2019-01-29T18:22:54.349Z,1.70
2019-01-29T18:24:56.310Z,1.70
2019-01-29T18:26:58.057Z,1.70
2019-01-29T18:28:59.784Z,1.60
2019-01-29T18:31:01.664Z,1.60
2019-01-29T18:33:03.843Z,1.60
2019-01-29T18:35:06.466Z,1.60
2019-01-29T18:37:08.206Z,1.60
2019-01-29T18:39:09.926Z,1.70
2019-01-29T18:41:11.669Z,1.60
2019-01-29T18:43:13.434Z,1.60
2019-01-29T18:45:15.459Z,1.60
2019-01-29T18:47:17.416Z,1.60
2019-01-29T18:49:19.129Z,1.60
2019-01-29T18:51:20.955Z,1.50
2019-01-29T18:53:22.876Z,1.40
2019-01-29T18:55:24.598Z,1.40
2019-01-29T18:57:26.413Z,1.40
2019-01-29T18:59:28.326Z,1.50
2019-01-29T19:01:30.153Z,1.50
2019-01-29T19:03:31.894Z,1.50
2019-01-29T19:05:33.770Z,1.30
2019-01-29T19:07:35.690Z,1.30
2019-01-29T19:09:37.626Z,1.30
2019-01-29T19:11:39.490Z,1.20
2019-01-29T19:13:41.374Z,1.20
2019-01-29T19:15:43.442Z,1.20
2019-01-29T19:17:45.603Z,1.20
2019-01-29T19:19:47.323Z,1.20
2019-01-29T19:21:49.072Z,1.10
2019-01-29T19:23:50.827Z,1.10
2019-01-29T19:25:52.681Z,1.00
2019-01-29T19:27:54.869Z,1.00
2019-01-29T19:29:56.782Z,1.00
2019-01-29T19:31:58.498Z,0.90
2019-01-29T19:34:00.330Z,1.00
2019-01-29T19:36:02.405Z,0.90
2019-01-29T19:38:04.226Z,0.90
2019-01-29T19:40:09.202Z,0.90
2019-01-29T19:42:11.009Z,0.90
2019-01-29T19:44:12.786Z,1.00
2019-01-29T19:46:14.491Z,0.90
2019-01-29T19:48:16.533Z,0.90
2019-01-29T19:50:20.222Z,0.80
2019-01-29T19:52:22.022Z,0.80
2019-01-29T19:54:23.730Z,0.80
2019-01-29T19:56:25.545Z,0.70
2019-01-29T19:58:32.291Z,0.70
2019-01-29T20:00:33.681Z,0.60
2019-01-29T20:02:35.545Z,0.60
2019-01-29T20:04:39.314Z,0.60
2019-01-29T20:06:44.791Z,0.60
2019-01-29T20:08:46.511Z,0.60
2019-01-29T20:10:48.546Z,0.60
2019-01-29T20:12:50.475Z,0.60
2019-01-29T20:14:52.235Z,0.50
2019-01-29T20:16:54.285Z,0.50
2019-01-29T20:18:55.994Z,0.50
2019-01-29T20:20:57.947Z,0.60
2019-01-29T20:23:07.652Z,0.50
2019-01-29T20:25:04.540Z,0.50
2019-01-29T20:27:06.416Z,0.50
2019-01-29T20:29:08.254Z,0.50
2019-01-29T20:31:10.077Z,0.50
2019-01-29T20:33:11.989Z,0.40
2019-01-29T20:35:13.922Z,0.50
2019-01-29T20:37:15.752Z,0.40
2019-01-29T20:39:17.659Z,0.40
2019-01-29T20:41:19.703Z,0.40
2019-01-29T20:43:21.781Z,0.40
2019-01-29T20:45:23.834Z,0.40
2019-01-29T20:47:25.578Z,0.40
2019-01-29T20:49:27.302Z,0.40
2019-01-29T20:51:29.208Z,0.40
2019-01-29T20:53:30.935Z,0.40
2019-01-29T20:55:33.139Z,0.40
2019-01-29T20:57:35.113Z,0.30
2019-01-29T20:59:37.030Z,0.30
2019-01-29T21:01:38.954Z,0.30
2019-01-29T21:03:40.874Z,0.30
2019-01-29T21:05:42.702Z,0.30
2019-01-29T21:07:44.535Z,0.30
2019-01-29T21:09:46.612Z,0.30
2019-01-29T21:11:48.342Z,0.30
2019-01-29T21:13:50.309Z,0.30
2019-01-29T21:15:52.171Z,0.20
2019-01-29T21:17:54.166Z,0.20
2019-01-29T21:19:55.946Z,0.20
2019-01-29T21:21:57.779Z,0.20
2019-01-29T21:23:59.646Z,0.20
2019-01-29T21:26:01.466Z,0.20
2019-01-29T21:28:03.506Z,0.30
2019-01-29T21:30:11.830Z,0.20
2019-01-29T21:32:13.545Z,0.20
2019-01-29T21:34:15.312Z,0.20
2019-01-29T21:36:17.254Z,0.20
2019-01-29T21:38:19.098Z,0.20
2019-01-29T21:40:21.028Z,0.20
2019-01-29T21:42:22.788Z,0.20
2019-01-29T21:44:24.527Z,0.30
2019-01-29T21:46:26.246Z,0.20
2019-01-29T21:48:28.085Z,0.20
2019-01-29T21:50:30.930Z,0.20
2019-01-29T21:52:32.810Z,0.20
2019-01-29T21:54:34.603Z,0.20
2019-01-29T21:56:36.338Z,0.20
2019-01-29T21:58:38.163Z,0.30
2019-01-29T22:00:42.384Z,0.30
2019-01-29T22:02:44.118Z,0.30
2019-01-29T22:04:46.223Z,0.30
2019-01-29T22:06:47.994Z,0.30
2019-01-29T22:08:50.055Z,0.20
2019-01-29T22:10:51.895Z,0.20
2019-01-29T22:12:53.718Z,0.10
2019-01-29T22:14:55.450Z,0.10
2019-01-29T22:16:58.973Z,0.20
2019-01-29T22:19:00.927Z,0.20
2019-01-29T22:21:02.904Z,0.10
2019-01-29T22:23:04.906Z,0.10
2019-01-29T22:25:09.584Z,0.10
2019-01-29T22:27:11.355Z,0.20
2019-01-29T22:29:22.957Z,0.10
2019-01-29T22:31:17.002Z,0.10
2019-01-29T22:33:19.140Z,0.10
2019-01-29T22:35:21.099Z,0.00
2019-01-29T22:37:23.049Z,0.00
2019-01-29T22:39:24.810Z,0.00
2019-01-29T22:41:26.558Z,0.00
2019-01-29T22:43:29.307Z,0.00
2019-01-29T22:45:31.139Z,0.10
2019-01-29T22:47:32.878Z,0.10
2019-01-29T22:49:34.626Z,0.10
2019-01-29T22:51:36.383Z,0.10
2019-01-29T22:53:38.129Z,0.00
2019-01-29T22:55:40.151Z,0.00
2019-01-29T22:57:41.868Z,0.00
2019-01-29T22:59:43.604Z,0.00
2019-01-29T23:01:45.535Z,-0.10
2019-01-29T23:03:54.046Z,-0.10
2019-01-29T23:06:03.808Z,-0.10
2019-01-29T23:08:06.005Z,-0.10
2019-01-29T23:10:12.406Z,-0.10
2019-01-29T23:12:14.435Z,0.00
2019-01-29T23:14:16.436Z,-0.10
2019-01-29T23:16:18.402Z,0.00
2019-01-29T23:18:20.305Z,0.00
2019-01-29T23:20:22.235Z,0.10
2019-01-29T23:22:24.060Z,0.00
2019-01-29T23:24:25.884Z,-0.10
2019-01-29T23:26:27.586Z,-0.10
2019-01-29T23:28:29.878Z,-0.10
2019-01-29T23:30:31.582Z,-0.10
2019-01-29T23:32:33.674Z,-0.10
2019-01-29T23:34:35.559Z,-0.20
2019-01-29T23:36:37.277Z,-0.10
2019-01-29T23:38:38.978Z,-0.20
2019-01-29T23:40:40.684Z,-0.20
2019-01-29T23:42:42.602Z,-0.10
2019-01-29T23:44:44.419Z,-0.10
2019-01-29T23:46:46.143Z,-0.10
2019-01-29T23:48:47.851Z,-0.10
2019-01-29T23:50:49.706Z,-0.10
2019-01-29T23:52:51.430Z,0.00
2019-01-29T23:54:53.138Z,0.00
2019-01-29T23:56:54.862Z,-0.10
2019-01-29T23:58:56.575Z,-0.10
